Time;durP1;ratioP1;P1;durP2;ratioP2;P2;SDS_P1;SDS_P2;PMS_P1;PMS_P2;Temp;Humidity;BMP_temperature;BMP_pressure;BME280_temperature;BME280_humidity;BME280_pressure;Samples;Min_cycle;Max_cycle;Signal;HPM_P1;HPM_P2
2023/09/10 00:01:34;;;;;;;11.43;9.55;;;;;;;;;;5035273;28;20037;-67
2023/09/10 00:04:00;;;;;;;9.90;8.13;;;;;;;;;;5035427;28;20048;-66
2023/09/10 00:06:25;;;;;;;11.00;8.85;;;;;;;;;;5035206;28;20022;-68
2023/09/10 00:08:50;;;;;;;9.63;8.32;;;;;;;;;;5035432;28;20132;-68
2023/09/10 00:11:16;;;;;;;10.10;8.98;;;;;;;;;;5035513;28;20025;-67
2023/09/10 00:13:41;;;;;;;10.00;7.95;;;;;;;;;;5035576;28;20124;-64
2023/09/10 00:16:06;;;;;;;9.65;8.65;;;;;;;;;;5017255;28;20052;-61
2023/09/10 00:18:32;;;;;;;9.63;8.63;;;;;;;;;;5035314;28;20048;-62
2023/09/10 00:20:57;;;;;;;11.05;9.07;;;;;;;;;;5035038;28;20029;-63
2023/09/10 00:23:23;;;;;;;10.93;9.52;;;;;;;;;;5017578;28;20469;-63
2023/09/10 00:25:48;;;;;;;12.07;9.93;;;;;;;;;;5034808;28;20041;-63
2023/09/10 00:28:13;;;;;;;11.15;9.93;;;;;;;;;;5034992;28;20029;-62
2023/09/10 00:30:39;;;;;;;9.90;8.65;;;;;;;;;;5016977;28;20395;-63
2023/09/10 00:33:04;;;;;;;9.98;8.38;;;;;;;;;;5016798;28;20029;-64
2023/09/10 00:35:30;;;;;;;9.25;8.35;;;;;;;;;;5035115;28;20026;-66
2023/09/10 00:37:55;;;;;;;9.30;8.35;;;;;;;;;;5017114;28;20488;-66
2023/09/10 00:40:22;;;;;;;10.80;8.35;;;;;;;;;;5016831;28;20025;-66
2023/09/10 00:42:47;;;;;;;8.90;8.00;;;;;;;;;;5034520;28;20366;-67
2023/09/10 00:45:13;;;;;;;9.65;8.65;;;;;;;;;;5035016;28;20029;-67
2023/09/10 00:47:40;;;;;;;9.25;8.07;;;;;;;;;;5016704;28;20037;-66
2023/09/10 00:50:06;;;;;;;12.05;9.45;;;;;;;;;;5016688;28;20025;-66
2023/09/10 00:52:32;;;;;;;10.40;8.75;;;;;;;;;;5034338;28;20025;-65
2023/09/10 00:54:58;;;;;;;10.45;9.35;;;;;;;;;;5017244;28;20083;-67
2023/09/10 00:57:24;;;;;;;10.60;9.57;;;;;;;;;;5034041;28;20497;-67
2023/09/10 00:59:50;;;;;;;11.25;9.63;;;;;;;;;;5034203;28;20116;-67
2023/09/10 01:02:16;;;;;;;10.35;8.98;;;;;;;;;;5000146;28;20116;-66
2023/09/10 01:04:41;;;;;;;10.30;9.30;;;;;;;;;;5034441;28;20017;-64
2023/09/10 01:07:07;;;;;;;10.70;9.20;;;;;;;;;;5034172;28;20465;-65
2023/09/10 01:09:32;;;;;;;10.25;9.25;;;;;;;;;;5034476;28;20041;-65
2023/09/10 01:12:17;;;;;;;8.32;7.55;;;;;;;;;;5033916;28;20574;-65
2023/09/10 01:14:54;;;;;;;12.02;8.05;;;;;;;;;;5016279;28;20370;-65
2023/09/10 01:17:33;;;;;;;9.63;8.18;;;;;;;;;;5034630;28;20152;-65
2023/09/10 01:20:09;;;;;;;10.52;8.05;;;;;;;;;;5016171;28;20461;-61
2023/09/10 01:22:54;;;;;;;8.55;7.72;;;;;;;;;;5016698;28;20029;-61
2023/09/10 01:25:20;;;;;;;9.32;8.43;;;;;;;;;;5034519;28;20025;-62
2023/09/10 01:27:46;;;;;;;9.43;7.80;;;;;;;;;;5034086;28;20028;-61
2023/09/10 01:30:12;;;;;;;9.25;8.27;;;;;;;;;;5015933;28;20394;-61
2023/09/10 01:32:37;;;;;;;9.48;8.38;;;;;;;;;;5033916;28;20030;-64
2023/09/10 01:35:23;;;;;;;11.90;8.18;;;;;;;;;;5033950;28;20036;-64
2023/09/10 01:37:56;;;;;;;8.70;7.88;;;;;;;;;;4999062;28;20048;-61
2023/09/10 01:40:24;;;;;;;9.30;8.35;;;;;;;;;;5033630;28;20030;-61
2023/09/10 01:42:50;;;;;;;9.38;8.32;;;;;;;;;;5033826;28;20033;-62
2023/09/10 01:45:16;;;;;;;12.55;8.77;;;;;;;;;;5015872;28;20021;-63
2023/09/10 01:47:42;;;;;;;10.30;9.30;;;;;;;;;;5016354;28;20033;-64
2023/09/10 01:50:08;;;;;;;11.70;9.20;;;;;;;;;;5033914;28;20021;-65
2023/09/10 01:52:33;;;;;;;10.60;9.50;;;;;;;;;;5015756;28;20083;-69
2023/09/10 01:54:58;;;;;;;9.75;8.75;;;;;;;;;;4999403;28;20466;-69
2023/09/10 01:57:24;;;;;;;9.95;7.93;;;;;;;;;;5013210;28;20041;-69
2023/09/10 01:59:49;;;;;;;11.77;8.77;;;;;;;;;;5012418;28;20030;-63
2023/09/10 02:02:15;;;;;;;9.23;8.27;;;;;;;;;;5012384;28;20030;-63
2023/09/10 02:04:40;;;;;;;8.57;7.70;;;;;;;;;;5013705;28;20371;-63
2023/09/10 02:07:06;;;;;;;10.10;9.00;;;;;;;;;;5013890;28;20037;-63
2023/09/10 02:09:31;;;;;;;10.10;8.82;;;;;;;;;;5013404;28;20035;-63
2023/09/10 02:11:56;;;;;;;11.68;8.70;;;;;;;;;;5018105;28;20030;-66
2023/09/10 02:14:23;;;;;;;9.88;8.90;;;;;;;;;;5017450;28;20037;-66
2023/09/10 02:16:48;;;;;;;11.45;9.55;;;;;;;;;;5016799;28;20088;-65
2023/09/10 02:19:14;;;;;;;10.98;9.75;;;;;;;;;;5016707;28;20022;-68
2023/09/10 02:21:39;;;;;;;12.57;9.60;;;;;;;;;;5017710;28;20105;-63
2023/09/10 02:24:05;;;;;;;12.90;9.85;;;;;;;;;;5017560;28;20113;-64
2023/09/10 02:26:30;;;;;;;10.05;9.05;;;;;;;;;;5018140;28;20022;-64
2023/09/10 02:28:55;;;;;;;9.35;8.38;;;;;;;;;;5017567;28;20029;-64
2023/09/10 02:31:22;;;;;;;10.52;7.93;;;;;;;;;;5015967;28;20092;-64
2023/09/10 02:33:47;;;;;;;10.52;8.88;;;;;;;;;;5017692;28;20473;-66
2023/09/10 02:36:12;;;;;;;9.25;7.95;;;;;;;;;;5017412;28;20030;-64
2023/09/10 02:38:38;;;;;;;10.40;9.10;;;;;;;;;;5017406;28;20026;-62
2023/09/10 02:41:04;;;;;;;11.38;8.60;;;;;;;;;;5017378;28;20022;-63
2023/09/10 02:43:29;;;;;;;10.35;9.25;;;;;;;;;;5015781;28;20036;-62
2023/09/10 02:45:55;;;;;;;11.80;9.48;;;;;;;;;;5017324;28;20026;-62
2023/09/10 02:48:21;;;;;;;10.43;8.68;;;;;;;;;;5015928;28;20070;-61
2023/09/10 02:50:46;;;;;;;11.05;8.55;;;;;;;;;;5016814;28;20105;-61
2023/09/10 02:53:12;;;;;;;10.02;8.77;;;;;;;;;;5017035;28;20113;-66
2023/09/10 02:55:37;;;;;;;10.77;8.32;;;;;;;;;;5016936;28;20081;-66
2023/09/10 02:58:03;;;;;;;9.82;8.85;;;;;;;;;;5016489;28;20485;-66
2023/09/10 03:00:28;;;;;;;9.82;8.02;;;;;;;;;;5036763;28;20060;-67
2023/09/10 03:02:55;;;;;;;8.20;7.32;;;;;;;;;;5018970;28;20080;-66
2023/09/10 03:05:20;;;;;;;8.88;7.80;;;;;;;;;;5036668;28;20105;-65
2023/09/10 03:07:46;;;;;;;8.32;7.55;;;;;;;;;;5036373;28;20120;-65
2023/09/10 03:10:11;;;;;;;10.60;9.02;;;;;;;;;;5018609;28;20025;-65
2023/09/10 03:12:37;;;;;;;10.45;8.73;;;;;;;;;;5036473;28;20025;-64
2023/09/10 03:15:02;;;;;;;9.80;8.48;;;;;;;;;;5036193;28;20105;-64
2023/09/10 03:17:28;;;;;;;10.90;8.48;;;;;;;;;;5018431;28;20029;-67
2023/09/10 03:19:53;;;;;;;9.80;8.75;;;;;;;;;;5018377;28;20021;-66
2023/09/10 03:22:19;;;;;;;9.43;8.52;;;;;;;;;;5034812;28;20079;-68
2023/09/10 03:24:44;;;;;;;9.88;8.88;;;;;;;;;;5018657;28;20461;-68
2023/09/10 03:27:09;;;;;;;11.57;9.52;;;;;;;;;;5018217;28;20037;-68
2023/09/10 03:29:36;;;;;;;9.30;8.40;;;;;;;;;;5035880;28;20116;-68
2023/09/10 03:32:03;;;;;;;10.32;8.32;;;;;;;;;;5018725;28;20029;-68
2023/09/10 03:34:29;;;;;;;10.52;8.98;;;;;;;;;;5018269;28;20033;-68
2023/09/10 03:36:56;;;;;;;10.05;9.02;;;;;;;;;;5018181;28;20057;-68
2023/09/10 03:39:21;;;;;;;10.50;8.73;;;;;;;;;;5035836;28;20021;-68
2023/09/10 03:41:47;;;;;;;9.00;8.15;;;;;;;;;;5036011;28;20026;-68
2023/09/10 03:44:12;;;;;;;9.63;8.63;;;;;;;;;;5018577;28;20037;-64
2023/09/10 03:46:38;;;;;;;9.07;8.18;;;;;;;;;;5036396;28;20071;-64
2023/09/10 03:49:03;;;;;;;8.40;7.45;;;;;;;;;;5017875;28;20393;-63
2023/09/10 03:51:28;;;;;;;8.52;7.70;;;;;;;;;;5018093;28;20030;-64
2023/09/10 03:53:54;;;;;;;9.10;7.78;;;;;;;;;;5035393;28;20030;-63
2023/09/10 03:56:19;;;;;;;8.52;7.65;;;;;;;;;;5035752;28;20120;-63
2023/09/10 03:58:45;;;;;;;9.55;8.02;;;;;;;;;;5017614;28;20120;-63
2023/09/10 04:01:10;;;;;;;11.65;9.32;;;;;;;;;;5017631;28;20385;-63
2023/09/10 04:03:36;;;;;;;10.40;9.00;;;;;;;;;;5017476;28;20049;-65
2023/09/10 04:06:02;;;;;;;9.73;8.73;;;;;;;;;;5017478;28;20026;-65
2023/09/10 04:08:27;;;;;;;9.57;8.57;;;;;;;;;;5017451;28;20032;-65
2023/09/10 04:10:53;;;;;;;8.70;7.85;;;;;;;;;;5035158;28;20029;-66
2023/09/10 04:13:18;;;;;;;9.50;7.65;;;;;;;;;;5035256;28;20036;-68
2023/09/10 04:15:43;;;;;;;8.30;7.03;;;;;;;;;;5018028;28;20377;-63
2023/09/10 04:18:09;;;;;;;7.57;6.88;;;;;;;;;;5017919;28;20115;-63
2023/09/10 04:20:34;;;;;;;9.00;7.05;;;;;;;;;;5000977;28;20021;-61
2023/09/10 04:23:00;;;;;;;13.18;7.70;;;;;;;;;;5035238;28;20068;-64
2023/09/10 04:25:25;;;;;;;9.32;8.13;;;;;;;;;;5017047;28;20122;-62
2023/09/10 04:27:50;;;;;;;8.98;8.13;;;;;;;;;;5016883;28;20091;-62
2023/09/10 04:30:16;;;;;;;10.57;8.27;;;;;;;;;;5034432;28;20036;-61
2023/09/10 04:32:42;;;;;;;8.77;7.57;;;;;;;;;;5016430;28;20065;-66
2023/09/10 04:35:08;;;;;;;8.38;7.57;;;;;;;;;;5000582;28;20376;-66
2023/09/10 04:37:34;;;;;;;7.75;6.95;;;;;;;;;;5016827;28;20014;-66
2023/09/10 04:40:01;;;;;;;7.88;7.18;;;;;;;;;;5000589;28;20055;-66
2023/09/10 04:42:28;;;;;;;8.25;7.45;;;;;;;;;;5016551;28;20060;-65
2023/09/10 04:44:53;;;;;;;8.00;7.03;;;;;;;;;;5016643;28;20025;-65
2023/09/10 04:47:18;;;;;;;7.97;7.28;;;;;;;;;;5033843;28;20055;-60
2023/09/10 04:49:44;;;;;;;8.88;7.72;;;;;;;;;;4999830;28;20369;-60
2023/09/10 04:52:09;;;;;;;8.93;7.53;;;;;;;;;;5033638;28;20025;-61
2023/09/10 04:54:35;;;;;;;8.18;7.18;;;;;;;;;;5015807;28;20021;-62
2023/09/10 04:57:00;;;;;;;9.07;7.30;;;;;;;;;;5015831;28;20025;-60
2023/09/10 04:59:26;;;;;;;9.30;8.40;;;;;;;;;;5016047;28;20025;-61
2023/09/10 05:01:52;;;;;;;8.35;7.45;;;;;;;;;;5033314;28;20100;-61
2023/09/10 05:04:17;;;;;;;9.40;7.75;;;;;;;;;;5033332;28;20477;-62
2023/09/10 05:06:42;;;;;;;8.60;7.75;;;;;;;;;;5015449;28;20032;-61
2023/09/10 05:09:08;;;;;;;12.10;8.32;;;;;;;;;;5015810;28;20075;-61
2023/09/10 05:11:34;;;;;;;8.82;7.93;;;;;;;;;;5033295;28;20025;-62
2023/09/10 05:13:59;;;;;;;8.10;7.25;;;;;;;;;;5033571;28;20016;-61
2023/09/10 05:16:25;;;;;;;9.40;8.48;;;;;;;;;;5015965;28;20040;-62
2023/09/10 05:18:50;;;;;;;11.60;8.07;;;;;;;;;;5033777;28;20113;-61
2023/09/10 05:21:17;;;;;;;10.55;8.55;;;;;;;;;;4999353;28;20030;-61
2023/09/10 05:23:43;;;;;;;11.10;8.32;;;;;;;;;;4998849;28;20033;-65
2023/09/10 05:26:08;;;;;;;9.30;8.40;;;;;;;;;;5015127;28;20030;-61
2023/09/10 05:28:34;;;;;;;9.18;8.27;;;;;;;;;;5015637;28;20041;-62
2023/09/10 05:31:03;;;;;;;9.95;8.82;;;;;;;;;;5015903;28;20116;-61
2023/09/10 05:33:29;;;;;;;9.40;8.38;;;;;;;;;;5015988;28;20473;-61
2023/09/10 05:35:58;;;;;;;8.93;8.02;;;;;;;;;;5015707;28;20033;-61
2023/09/10 05:38:25;;;;;;;10.57;8.35;;;;;;;;;;5015427;28;20030;-61
2023/09/10 05:40:51;;;;;;;11.25;8.88;;;;;;;;;;5015274;28;20025;-62
2023/09/10 05:43:17;;;;;;;9.50;8.45;;;;;;;;;;5014935;28;20032;-61
2023/09/10 05:45:44;;;;;;;10.50;8.38;;;;;;;;;;5032344;28;20105;-61
2023/09/10 05:48:09;;;;;;;11.52;8.20;;;;;;;;;;5014859;28;20079;-61
2023/09/10 05:50:36;;;;;;;10.02;8.88;;;;;;;;;;5015533;28;20026;-61
2023/09/10 05:53:02;;;;;;;10.50;8.38;;;;;;;;;;5015373;28;20044;-61
2023/09/10 05:55:28;;;;;;;10.20;8.63;;;;;;;;;;5015302;28;20021;-61
2023/09/10 05:57:53;;;;;;;9.82;8.35;;;;;;;;;;5032705;28;20378;-61
2023/09/10 06:00:20;;;;;;;12.25;8.35;;;;;;;;;;5015194;28;20022;-61
2023/09/10 06:02:47;;;;;;;9.82;8.82;;;;;;;;;;5014847;28;20022;-61
2023/09/10 06:05:14;;;;;;;10.63;8.45;;;;;;;;;;5032566;28;20047;-61
2023/09/10 06:07:40;;;;;;;8.95;8.05;;;;;;;;;;5015272;28;20083;-60
2023/09/10 06:10:08;;;;;;;9.57;8.63;;;;;;;;;;5015440;28;20017;-61
2023/09/10 06:12:38;;;;;;;10.07;8.43;;;;;;;;;;4998938;28;20029;-61
2023/09/10 06:15:04;;;;;;;9.00;7.93;;;;;;;;;;5015615;28;20469;-64
2023/09/10 06:17:29;;;;;;;9.40;8.25;;;;;;;;;;4999088;28;20064;-63
2023/09/10 06:19:55;;;;;;;9.57;8.15;;;;;;;;;;5014894;28;20049;-64
2023/09/10 06:22:21;;;;;;;10.38;8.90;;;;;;;;;;5040999;28;20075;-62
2023/09/10 06:24:46;;;;;;;12.30;8.77;;;;;;;;;;5034745;28;20044;-61
2023/09/10 06:27:12;;;;;;;11.43;9.07;;;;;;;;;;5034529;28;20524;-62
2023/09/10 06:29:37;;;;;;;11.52;8.48;;;;;;;;;;5035001;28;20032;-60
2023/09/10 06:32:03;;;;;;;11.68;8.63;;;;;;;;;;5032734;28;20029;-64
2023/09/10 06:34:29;;;;;;;11.52;9.48;;;;;;;;;;5014336;28;20033;-63
2023/09/10 06:36:55;;;;;;;9.65;8.68;;;;;;;;;;5015132;28;20036;-63
2023/09/10 06:39:21;;;;;;;9.93;8.88;;;;;;;;;;4998519;28;20052;-64
2023/09/10 06:41:47;;;;;;;9.57;8.07;;;;;;;;;;5015125;28;20479;-64
2023/09/10 06:44:12;;;;;;;11.50;8.60;;;;;;;;;;5015239;28;20022;-64
2023/09/10 06:46:38;;;;;;;10.82;9.13;;;;;;;;;;5015102;28;20479;-64
2023/09/10 06:49:03;;;;;;;12.93;9.23;;;;;;;;;;5032245;28;20022;-63
2023/09/10 06:51:28;;;;;;;10.57;8.40;;;;;;;;;;5032592;28;20103;-64
2023/09/10 06:53:54;;;;;;;11.77;8.68;;;;;;;;;;5032586;28;20056;-65
2023/09/10 06:56:20;;;;;;;12.95;8.80;;;;;;;;;;5034451;28;20041;-64
2023/09/10 06:58:45;;;;;;;9.65;8.65;;;;;;;;;;5035838;28;20069;-67
2023/09/10 07:01:12;;;;;;;9.63;8.68;;;;;;;;;;5035798;28;20033;-59
2023/09/10 07:03:37;;;;;;;8.57;7.68;;;;;;;;;;5036031;28;20033;-64
2023/09/10 07:06:04;;;;;;;11.88;8.98;;;;;;;;;;5036337;28;20432;-71
2023/09/10 07:08:29;;;;;;;8.32;7.35;;;;;;;;;;5036041;28;20049;-60
2023/09/10 07:10:54;;;;;;;8.93;7.22;;;;;;;;;;5027523;28;20061;-59
2023/09/10 07:13:20;;;;;;;10.10;8.27;;;;;;;;;;5031165;28;20083;-60
2023/09/10 07:15:45;;;;;;;10.50;8.98;;;;;;;;;;5034015;28;20029;-59
2023/09/10 07:18:10;;;;;;;9.48;7.47;;;;;;;;;;5007721;28;20013;-63
2023/09/10 07:20:36;;;;;;;7.88;6.55;;;;;;;;;;5034413;28;20025;-64
2023/09/10 07:23:01;;;;;;;7.75;6.72;;;;;;;;;;5035523;28;20111;-64
2023/09/10 07:25:28;;;;;;;7.93;7.13;;;;;;;;;;5001684;28;20171;-64
2023/09/10 07:27:53;;;;;;;9.45;8.07;;;;;;;;;;5000718;28;20030;-64
2023/09/10 07:30:19;;;;;;;9.65;8.43;;;;;;;;;;5017672;28;20052;-65
2023/09/10 07:32:46;;;;;;;11.90;8.77;;;;;;;;;;5034934;28;20104;-64
2023/09/10 07:35:13;;;;;;;10.70;7.50;;;;;;;;;;5016466;28;20081;-64
2023/09/10 07:37:39;;;;;;;8.18;7.25;;;;;;;;;;5018805;28;20029;-59
2023/09/10 07:40:04;;;;;;;7.60;6.90;;;;;;;;;;5033387;28;20088;-64
2023/09/10 07:42:30;;;;;;;9.55;8.55;;;;;;;;;;5035375;28;20037;-64
2023/09/10 07:44:55;;;;;;;9.95;8.93;;;;;;;;;;5035513;28;20109;-64
2023/09/10 07:47:21;;;;;;;9.88;7.60;;;;;;;;;;5035615;28;20500;-64
2023/09/10 07:49:49;;;;;;;9.38;7.18;;;;;;;;;;5016751;28;20025;-64
2023/09/10 07:52:15;;;;;;;7.68;6.97;;;;;;;;;;5034858;28;20047;-63
2023/09/10 07:54:40;;;;;;;8.40;7.10;;;;;;;;;;5035364;28;20124;-63
2023/09/10 07:57:06;;;;;;;8.35;6.40;;;;;;;;;;5034850;28;20114;-63
2023/09/10 07:59:31;;;;;;;7.93;7.07;;;;;;;;;;5035055;28;20040;-64
2023/09/10 08:01:57;;;;;;;8.23;7.32;;;;;;;;;;5034261;28;20056;-64
2023/09/10 08:04:22;;;;;;;7.93;7.15;;;;;;;;;;5015479;28;20025;-64
2023/09/10 08:06:47;;;;;;;10.20;8.30;;;;;;;;;;5032660;28;20017;-64
2023/09/10 08:09:13;;;;;;;8.07;7.28;;;;;;;;;;5033765;28;20385;-64
2023/09/10 08:11:38;;;;;;;8.35;7.32;;;;;;;;;;5034651;28;20478;-63
2023/09/10 08:14:03;;;;;;;11.40;9.43;;;;;;;;;;5034442;28;20512;-63
2023/09/10 08:16:29;;;;;;;7.57;6.82;;;;;;;;;;5034491;28;20156;-63
2023/09/10 08:18:54;;;;;;;8.85;7.95;;;;;;;;;;5035753;28;20389;-63
2023/09/10 08:21:20;;;;;;;10.15;8.80;;;;;;;;;;5035542;28;20080;-63
2023/09/10 08:23:47;;;;;;;10.50;7.30;;;;;;;;;;5017265;28;20095;-63
2023/09/10 08:26:12;;;;;;;10.48;8.00;;;;;;;;;;5035214;28;20126;-63
2023/09/10 08:28:38;;;;;;;9.40;8.15;;;;;;;;;;5034863;28;20053;-63
2023/09/10 08:31:04;;;;;;;9.40;7.88;;;;;;;;;;5034865;28;20504;-63
2023/09/10 08:33:29;;;;;;;10.60;9.20;;;;;;;;;;5034949;28;20040;-63
2023/09/10 08:35:55;;;;;;;12.60;9.27;;;;;;;;;;5035037;28;20025;-63
2023/09/10 08:38:24;;;;;;;14.95;10.50;;;;;;;;;;5034693;28;20537;-63
2023/09/10 08:41:00;;;;;;;13.57;9.50;;;;;;;;;;5017312;28;20035;-63
2023/09/10 08:43:31;;;;;;;11.50;9.55;;;;;;;;;;5035054;28;20279;-63
2023/09/10 08:45:56;;;;;;;9.55;8.40;;;;;;;;;;5034811;28;20492;-63
2023/09/10 08:48:23;;;;;;;9.75;8.27;;;;;;;;;;5034517;28;20104;-63
2023/09/10 08:50:49;;;;;;;10.73;9.32;;;;;;;;;;5034672;28;20067;-63
2023/09/10 08:53:16;;;;;;;11.13;9.20;;;;;;;;;;5034310;28;20065;-63
2023/09/10 08:55:42;;;;;;;9.07;7.45;;;;;;;;;;5016777;28;20033;-63
2023/09/10 08:58:09;;;;;;;8.65;7.55;;;;;;;;;;5035117;28;20346;-63
2023/09/10 09:00:35;;;;;;;8.27;7.45;;;;;;;;;;5016540;28;20030;-63
2023/09/10 09:03:01;;;;;;;8.57;7.78;;;;;;;;;;5046619;23;20038;-63
2023/09/10 09:05:27;;;;;;;10.35;8.40;;;;;;;;;;5046515;23;20072;-63
2023/09/10 09:10:45;;;;;;;11.60;8.20;;;;;;;;;;4981782;23;1137230;-63
2023/09/10 09:13:12;;;;;;;10.20;9.20;;;;;;;;;;5058108;23;20057;-63
2023/09/10 09:15:38;;;;;;;11.68;8.88;;;;;;;;;;5058635;23;20081;-63
2023/09/10 09:18:13;;;;;;;9.05;6.65;;;;;;;;;;5052314;23;20057;-61
2023/09/10 09:20:39;;;;;;;9.27;6.25;;;;;;;;;;5052298;23;20038;-59
2023/09/10 09:23:16;;;;;;;9.07;6.78;;;;;;;;;;5054478;23;20126;-59
2023/09/10 09:25:41;;;;;;;6.43;5.78;;;;;;;;;;5016200;28;20033;-59
2023/09/10 09:28:09;;;;;;;7.68;6.50;;;;;;;;;;5033858;28;20032;-59
2023/09/10 09:30:35;;;;;;;8.98;6.65;;;;;;;;;;5033805;28;20037;-59
2023/09/10 09:33:00;;;;;;;8.95;6.85;;;;;;;;;;5033954;28;20022;-59
2023/09/10 09:35:25;;;;;;;7.97;6.25;;;;;;;;;;5033730;28;20033;-59
2023/09/10 09:37:51;;;;;;;6.63;6.07;;;;;;;;;;5033971;28;20022;-59
2023/09/10 09:40:21;;;;;;;6.85;6.10;;;;;;;;;;5034232;28;20083;-59
2023/09/10 09:42:47;;;;;;;7.85;6.13;;;;;;;;;;5016589;28;20108;-59
2023/09/10 09:45:12;;;;;;;6.40;5.45;;;;;;;;;;5033869;28;20061;-59
2023/09/10 09:47:38;;;;;;;6.38;5.25;;;;;;;;;;5034102;28;20017;-59
2023/09/10 09:50:04;;;;;;;6.25;5.47;;;;;;;;;;5033544;28;20462;-59
2023/09/10 09:52:29;;;;;;;6.28;5.72;;;;;;;;;;5033542;28;20067;-59
2023/09/10 09:54:54;;;;;;;5.85;5.25;;;;;;;;;;5033734;28;20033;-59
2023/09/10 09:57:20;;;;;;;5.97;5.47;;;;;;;;;;5033792;28;20018;-59
2023/09/10 09:59:45;;;;;;;5.82;5.32;;;;;;;;;;5015932;28;20385;-59
2023/09/10 10:02:14;;;;;;;4.85;4.43;;;;;;;;;;5033987;28;20013;-59
2023/09/10 10:04:40;;;;;;;5.13;4.20;;;;;;;;;;5033429;28;20040;-59
2023/09/10 10:07:05;;;;;;;4.60;4.20;;;;;;;;;;5033667;28;20127;-60
2023/09/10 10:09:35;;;;;;;6.00;4.75;;;;;;;;;;5033954;28;20092;-59
2023/09/10 10:12:01;;;;;;;5.57;4.97;;;;;;;;;;5033715;28;20037;-59
2023/09/10 10:14:27;;;;;;;4.88;4.20;;;;;;;;;;5015629;28;20798;-59
2023/09/10 10:16:53;;;;;;;5.07;4.53;;;;;;;;;;5033604;28;20034;-59
2023/09/10 10:19:19;;;;;;;4.75;4.35;;;;;;;;;;5015761;28;20022;-59
2023/09/10 10:21:45;;;;;;;4.95;4.47;;;;;;;;;;5033309;28;20032;-59
2023/09/10 10:24:12;;;;;;;5.05;4.65;;;;;;;;;;5033551;28;20045;-59
2023/09/10 10:26:39;;;;;;;5.22;4.72;;;;;;;;;;5033805;28;20053;-59
2023/09/10 10:29:05;;;;;;;5.97;5.38;;;;;;;;;;5033219;28;20083;-59
2023/09/10 10:31:32;;;;;;;6.15;5.60;;;;;;;;;;5035813;28;20041;-59
2023/09/10 10:34:23;;;;;;;5.60;4.40;;;;;;;;;;5037007;28;20025;-59
2023/09/10 10:36:49;;;;;;;5.68;4.80;;;;;;;;;;5032242;28;20492;-59
2023/09/10 10:39:16;;;;;;;5.53;5.13;;;;;;;;;;5037241;28;20026;-59
2023/09/10 10:41:44;;;;;;;4.43;4.03;;;;;;;;;;5037160;28;20033;-59
2023/09/10 10:44:15;;;;;;;4.50;4.10;;;;;;;;;;5037137;28;20049;-59
2023/09/10 10:46:42;;;;;;;5.68;4.45;;;;;;;;;;5037046;28;20090;-59
2023/09/10 10:49:08;;;;;;;5.05;4.45;;;;;;;;;;5037043;28;20385;-59
2023/09/10 10:51:37;;;;;;;6.75;4.88;;;;;;;;;;5037006;28;20169;-59
2023/09/10 10:54:02;;;;;;;4.80;4.30;;;;;;;;;;5036612;28;20440;-59
2023/09/10 10:56:28;;;;;;;4.72;4.32;;;;;;;;;;5018973;28;20104;-59
2023/09/10 10:58:53;;;;;;;4.95;4.60;;;;;;;;;;5036851;28;20061;-59
2023/09/10 11:01:19;;;;;;;5.93;5.40;;;;;;;;;;5036547;28;20026;-59
2023/09/10 11:03:48;;;;;;;5.32;4.50;;;;;;;;;;5036463;28;20021;-59
2023/09/10 11:06:14;;;;;;;5.40;4.93;;;;;;;;;;5037041;28;20033;-59
2023/09/10 11:08:43;;;;;;;4.10;3.80;;;;;;;;;;5036955;28;20079;-59
2023/09/10 11:11:27;;;;;;;5.27;4.80;;;;;;;;;;5036686;28;20113;-59
2023/09/10 11:14:03;;;;;;;3.78;3.47;;;;;;;;;;5036765;28;20052;-59
2023/09/10 11:16:44;;;;;;;4.85;4.45;;;;;;;;;;5018906;28;20029;-59
2023/09/10 11:19:29;;;;;;;5.28;4.78;;;;;;;;;;5036467;28;20033;-59
2023/09/10 11:21:55;;;;;;;6.93;4.85;;;;;;;;;;5035792;28;20116;-59
2023/09/10 11:24:20;;;;;;;4.57;4.18;;;;;;;;;;5018757;28;20461;-59
2023/09/10 11:26:45;;;;;;;4.18;3.88;;;;;;;;;;5018684;28;20025;-59
2023/09/10 11:29:15;;;;;;;4.70;3.85;;;;;;;;;;5018412;28;20026;-59
2023/09/10 11:31:47;;;;;;;4.53;4.07;;;;;;;;;;5036295;28;20049;-59
2023/09/10 11:34:18;;;;;;;5.65;3.88;;;;;;;;;;5018699;28;20045;-59
2023/09/10 11:36:59;;;;;;;4.45;4.00;;;;;;;;;;5036178;28;20056;-59
2023/09/10 11:39:25;;;;;;;4.53;4.13;;;;;;;;;;5036352;28;20029;-59
2023/09/10 11:41:51;;;;;;;4.68;4.28;;;;;;;;;;5034759;28;20102;-59
2023/09/10 11:44:17;;;;;;;4.55;4.25;;;;;;;;;;5036243;28;20038;-59
2023/09/10 11:46:43;;;;;;;4.28;3.88;;;;;;;;;;5036170;28;20034;-59
2023/09/10 11:49:09;;;;;;;5.00;4.47;;;;;;;;;;5017941;28;20371;-59
2023/09/10 11:51:47;;;;;;;4.45;4.15;;;;;;;;;;5036165;28;20083;-59
2023/09/10 11:54:16;;;;;;;4.30;3.97;;;;;;;;;;5035757;28;20030;-59
2023/09/10 11:56:45;;;;;;;4.47;4.07;;;;;;;;;;5035531;28;20049;-59
2023/09/10 11:59:12;;;;;;;4.32;4.03;;;;;;;;;;5035717;28;20040;-59
2023/09/10 12:01:38;;;;;;;5.25;4.75;;;;;;;;;;5035463;28;20101;-59
2023/09/10 12:04:04;;;;;;;4.18;3.85;;;;;;;;;;5035406;28;20139;-59
2023/09/10 12:06:29;;;;;;;4.75;4.10;;;;;;;;;;5035905;28;20035;-59
2023/09/10 12:08:54;;;;;;;4.82;4.28;;;;;;;;;;5017950;28;20029;-59
2023/09/10 12:11:20;;;;;;;4.10;3.67;;;;;;;;;;5035544;28;20132;-59
2023/09/10 12:13:46;;;;;;;4.65;4.25;;;;;;;;;;5035410;28;20069;-59
2023/09/10 12:16:12;;;;;;;5.55;4.80;;;;;;;;;;5035454;28;20060;-59
2023/09/10 12:18:38;;;;;;;4.90;4.50;;;;;;;;;;5001282;28;20022;-59
2023/09/10 12:21:05;;;;;;;5.80;4.25;;;;;;;;;;5035337;28;20036;-59
2023/09/10 12:23:30;;;;;;;3.95;3.50;;;;;;;;;;5034850;28;20136;-59
2023/09/10 12:25:56;;;;;;;4.72;4.32;;;;;;;;;;5035004;28;20120;-59
2023/09/10 12:28:22;;;;;;;4.80;4.40;;;;;;;;;;5034920;28;20057;-59
2023/09/10 12:30:48;;;;;;;4.40;4.05;;;;;;;;;;5035424;28;20029;-59
2023/09/10 12:33:15;;;;;;;4.90;4.50;;;;;;;;;;5034736;28;20032;-59
2023/09/10 12:35:41;;;;;;;4.32;3.95;;;;;;;;;;5035094;28;20095;-59
2023/09/10 12:38:06;;;;;;;4.30;3.90;;;;;;;;;;5034978;28;20021;-59
2023/09/10 12:40:31;;;;;;;4.80;4.10;;;;;;;;;;5034638;28;20469;-59
2023/09/10 12:42:57;;;;;;;6.70;5.28;;;;;;;;;;5034632;28;20068;-59
2023/09/10 12:45:22;;;;;;;4.10;3.70;;;;;;;;;;5035088;28;20033;-59
2023/09/10 12:47:48;;;;;;;5.75;4.68;;;;;;;;;;5016924;28;20517;-59
2023/09/10 12:50:13;;;;;;;4.53;4.13;;;;;;;;;;5016798;28;20362;-59
2023/09/10 12:52:39;;;;;;;4.78;4.38;;;;;;;;;;5034718;28;20112;-59
2023/09/10 12:55:04;;;;;;;4.78;4.38;;;;;;;;;;5034358;28;20053;-59
2023/09/10 12:57:31;;;;;;;4.72;3.55;;;;;;;;;;5034376;28;20246;-59
2023/09/10 13:00:03;;;;;;;4.30;4.00;;;;;;;;;;5016589;28;20027;-59
2023/09/10 13:02:33;;;;;;;4.95;4.47;;;;;;;;;;5034569;28;20039;-59
2023/09/10 13:04:59;;;;;;;4.38;4.00;;;;;;;;;;5016811;28;20481;-59
2023/09/10 13:07:25;;;;;;;4.95;4.45;;;;;;;;;;5034253;28;20116;-59
2023/09/10 13:09:51;;;;;;;4.55;4.15;;;;;;;;;;5016466;28;20128;-59
2023/09/10 13:12:16;;;;;;;4.78;4.38;;;;;;;;;;5034099;28;20112;-59
2023/09/10 13:14:41;;;;;;;5.20;4.78;;;;;;;;;;5034543;28;20037;-59
2023/09/10 13:17:07;;;;;;;4.97;4.57;;;;;;;;;;5034328;28;20036;-59
2023/09/10 13:19:33;;;;;;;4.68;4.35;;;;;;;;;;5033956;28;20030;-59
2023/09/10 13:22:02;;;;;;;5.15;4.75;;;;;;;;;;5034204;28;20053;-59
2023/09/10 13:24:27;;;;;;;5.47;4.80;;;;;;;;;;5033715;28;20034;-59
2023/09/10 13:26:52;;;;;;;6.00;4.43;;;;;;;;;;5034100;28;20068;-60
2023/09/10 13:29:18;;;;;;;5.30;4.72;;;;;;;;;;5034285;28;20373;-59
2023/09/10 13:31:43;;;;;;;5.38;4.80;;;;;;;;;;5033363;28;20083;-59
2023/09/10 13:34:09;;;;;;;5.28;4.82;;;;;;;;;;5033629;28;20037;-59
2023/09/10 13:36:35;;;;;;;4.28;3.95;;;;;;;;;;5033839;28;20112;-59
2023/09/10 13:39:00;;;;;;;5.13;4.68;;;;;;;;;;5033544;28;20029;-59
2023/09/10 13:41:26;;;;;;;4.50;3.60;;;;;;;;;;5033766;28;20010;-59
2023/09/10 13:43:51;;;;;;;4.53;4.22;;;;;;;;;;5033493;28;20164;-59
2023/09/10 13:46:17;;;;;;;4.53;4.13;;;;;;;;;;5032697;28;20112;-60
2023/09/10 13:48:43;;;;;;;4.72;4.32;;;;;;;;;;5033195;28;20026;-59
2023/09/10 13:51:08;;;;;;;5.20;4.70;;;;;;;;;;5033229;28;20393;-59
2023/09/10 13:53:35;;;;;;;4.90;4.57;;;;;;;;;;5033312;28;20488;-62
2023/09/10 13:56:00;;;;;;;4.55;4.18;;;;;;;;;;5033005;28;20036;-62
2023/09/10 13:58:26;;;;;;;4.35;4.05;;;;;;;;;;5015078;28;20409;-62
2023/09/10 14:00:51;;;;;;;5.03;4.63;;;;;;;;;;5033231;28;20037;-62
2023/09/10 14:03:16;;;;;;;5.50;5.00;;;;;;;;;;5032960;28;20080;-61
2023/09/10 14:05:43;;;;;;;4.88;4.47;;;;;;;;;;5034582;28;20083;-60
2023/09/10 14:08:08;;;;;;;5.10;4.70;;;;;;;;;;5037073;28;20033;-60
2023/09/10 14:10:33;;;;;;;4.00;3.58;;;;;;;;;;5036555;28;20026;-66
2023/09/10 14:12:59;;;;;;;4.25;3.95;;;;;;;;;;5036292;28;20442;-60
2023/09/10 14:15:25;;;;;;;4.22;3.90;;;;;;;;;;5035963;28;20029;-66
2023/09/10 14:17:51;;;;;;;3.97;3.67;;;;;;;;;;5035992;28;20057;-66
2023/09/10 14:20:16;;;;;;;4.00;3.70;;;;;;;;;;5036492;28;20061;-66
2023/09/10 14:22:42;;;;;;;3.75;3.45;;;;;;;;;;5036212;28;20489;-66
2023/09/10 14:25:12;;;;;;;3.40;3.10;;;;;;;;;;5036386;28;20033;-66
2023/09/10 14:27:41;;;;;;;3.40;3.20;;;;;;;;;;5036604;28;20025;-66
2023/09/10 14:30:06;;;;;;;3.40;3.20;;;;;;;;;;5036260;28;20024;-66
2023/09/10 14:32:32;;;;;;;3.90;3.50;;;;;;;;;;5036519;28;20057;-66
2023/09/10 14:34:57;;;;;;;3.30;3.05;;;;;;;;;;5036731;28;20026;-66
2023/09/10 14:37:23;;;;;;;3.97;3.58;;;;;;;;;;5036648;28;20504;-66